createdAt,value
2019-05-28T00:00:52.040Z,71.98
2019-05-28T00:05:59.488Z,71.57
2019-05-28T00:11:06.959Z,70.80
2019-05-28T00:16:14.279Z,70.72
2019-05-28T00:21:21.714Z,70.60
2019-05-28T00:26:29.079Z,70.50
2019-05-28T00:31:36.566Z,70.89
2019-05-28T00:36:43.935Z,71.55
2019-05-28T00:41:52.413Z,71.73
2019-05-28T00:46:59.888Z,71.49
2019-05-28T00:52:07.478Z,71.28
2019-05-28T00:57:16.404Z,71.69
2019-05-28T01:02:23.863Z,71.58
2019-05-28T01:07:31.313Z,71.50
2019-05-28T01:12:38.700Z,71.68
2019-05-28T01:17:46.037Z,71.61
2019-05-28T01:22:53.482Z,71.06
2019-05-28T01:28:00.869Z,70.87
2019-05-28T01:33:08.135Z,70.80
2019-05-28T01:38:15.561Z,71.16
2019-05-28T01:43:23.028Z,72.74
2019-05-28T01:48:30.458Z,73.69
2019-05-28T01:53:37.851Z,74.06
2019-05-28T01:58:45.195Z,72.93
2019-05-28T02:03:52.615Z,72.28
2019-05-28T02:08:59.993Z,72.81
2019-05-28T02:14:07.737Z,72.26
2019-05-28T02:19:15.182Z,72.11
2019-05-28T02:24:22.639Z,71.75
2019-05-28T02:29:30.106Z,72.40
2019-05-28T02:34:37.402Z,74.13
2019-05-28T02:39:44.802Z,73.94
2019-05-28T02:44:52.217Z,73.41
2019-05-28T02:49:59.567Z,72.98
2019-05-28T02:55:07.852Z,73.96
2019-05-28T03:00:17.151Z,74.65
2019-05-28T03:05:24.544Z,74.81
2019-05-28T03:11:01.608Z,74.07
2019-05-28T03:15:51.999Z,74.39
2019-05-28T03:21:02.818Z,74.65
2019-05-28T03:26:10.303Z,74.28
2019-05-28T03:31:17.575Z,74.18
2019-05-28T03:36:29.439Z,73.71
2019-05-28T03:41:36.861Z,75.61
2019-05-28T03:46:44.179Z,75.71
2019-05-28T03:51:51.608Z,75.04
2019-05-28T03:56:58.915Z,76.09
2019-05-28T04:02:20.631Z,75.31
2019-05-28T04:07:15.267Z,75.41
2019-05-28T04:12:22.599Z,75.92
2019-05-28T04:17:30.746Z,76.13
2019-05-28T04:22:38.161Z,76.46
2019-05-28T04:27:45.522Z,75.91
2019-05-28T04:32:52.943Z,76.86
2019-05-28T04:38:00.227Z,76.63
2019-05-28T04:43:07.629Z,77.38
2019-05-28T04:48:15.049Z,77.43
2019-05-28T04:53:22.351Z,77.59
2019-05-28T04:58:29.783Z,77.72
2019-05-28T05:03:37.191Z,76.91
2019-05-28T05:08:44.740Z,76.78
2019-05-28T05:13:52.144Z,76.21
2019-05-28T05:18:59.585Z,77.56
2019-05-28T05:24:06.989Z,76.67
2019-05-28T05:29:14.586Z,78.22
2019-05-28T05:34:21.963Z,77.63
2019-05-28T05:39:29.552Z,78.70
2019-05-28T05:44:37.013Z,78.21
2019-05-28T05:49:44.552Z,78.47
2019-05-28T05:54:51.868Z,77.82
2019-05-28T05:59:59.219Z,78.08
2019-05-28T06:05:06.860Z,77.87
2019-05-28T06:10:14.461Z,78.17
2019-05-28T06:15:21.935Z,79.00
2019-05-28T06:20:29.344Z,78.71
2019-05-28T06:25:36.796Z,78.13
2019-05-28T06:30:44.221Z,77.94
2019-05-28T06:35:51.754Z,77.73
2019-05-28T06:40:59.196Z,75.94
2019-05-28T06:46:06.628Z,76.35
2019-05-28T06:51:13.970Z,76.72
2019-05-28T06:56:22.104Z,77.46
2019-05-28T07:01:29.460Z,78.36
2019-05-28T07:06:36.891Z,78.35
2019-05-28T07:11:44.260Z,78.88
2019-05-28T07:16:53.653Z,79.14
2019-05-28T07:22:00.672Z,78.56
2019-05-28T07:27:07.955Z,76.39
2019-05-28T07:32:15.384Z,77.44
2019-05-28T07:37:22.635Z,77.56
2019-05-28T07:42:33.004Z,77.66
2019-05-28T07:47:39.134Z,77.89
2019-05-28T07:52:46.519Z,76.38
2019-05-28T08:04:12.206Z,74.14
2019-05-28T08:09:19.589Z,74.32
2019-05-28T08:14:27.047Z,73.92
2019-05-28T08:19:34.380Z,71.66
2019-05-28T08:24:41.773Z,72.67
2019-05-28T08:29:49.160Z,74.77
2019-05-28T08:35:05.671Z,73.98
2019-05-28T08:40:09.540Z,74.97
2019-05-28T08:45:17.932Z,73.96
2019-05-28T08:50:34.401Z,74.60
2019-05-28T08:55:34.613Z,73.48
2019-05-28T09:00:45.142Z,72.51
2019-05-28T09:05:52.550Z,72.13
2019-05-28T09:10:59.890Z,71.79
2019-05-28T09:16:07.330Z,73.31
2019-05-28T09:21:14.723Z,73.25
2019-05-28T09:26:22.101Z,72.34
2019-05-28T09:31:29.400Z,73.70
2019-05-28T09:36:36.872Z,75.37
2019-05-28T09:41:44.300Z,72.57
2019-05-28T09:46:51.732Z,72.11
2019-05-28T09:51:58.975Z,71.61
2019-05-28T09:57:06.324Z,68.86
2019-05-28T10:02:13.919Z,71.92
2019-05-28T10:07:21.370Z,69.62
2019-05-28T10:12:28.792Z,71.15
2019-05-28T10:17:36.232Z,71.00
2019-05-28T10:22:43.624Z,72.23
2019-05-28T10:28:00.970Z,71.10
2019-05-28T10:33:00.278Z,71.38
2019-05-28T10:38:14.474Z,71.36
2019-05-28T10:43:16.685Z,71.34
2019-05-28T10:48:24.103Z,73.77
2019-05-28T10:53:31.437Z,69.36
2019-05-28T10:58:38.715Z,69.80
2019-05-28T11:03:47.205Z,71.56
2019-05-28T11:08:54.867Z,69.50
2019-05-28T11:14:02.287Z,70.44
2019-05-28T11:19:09.684Z,69.09
2019-05-28T11:24:17.019Z,68.46
2019-05-28T11:29:24.295Z,68.74
2019-05-28T11:34:32.704Z,69.65
2019-05-28T11:39:40.140Z,68.53
2019-05-28T11:44:47.576Z,66.94
2019-05-28T11:49:55.029Z,69.64
2019-05-28T11:55:02.522Z,66.94
2019-05-28T12:00:10.964Z,65.68
2019-05-28T12:05:19.096Z,66.39
2019-05-28T12:10:27.270Z,66.36
2019-05-28T12:15:34.718Z,66.26
2019-05-28T12:20:42.073Z,67.26
2019-05-28T12:25:49.474Z,65.49
2019-05-28T12:30:58.018Z,61.01
2019-05-28T12:36:05.499Z,57.90
2019-05-28T12:41:12.913Z,67.36
2019-05-28T12:46:20.242Z,66.37
2019-05-28T12:51:27.551Z,67.21
2019-05-28T12:56:34.872Z,64.10
2019-05-28T13:01:42.294Z,65.04
2019-05-28T13:06:49.671Z,59.63
2019-05-28T13:11:57.039Z,66.16
2019-05-28T13:17:04.437Z,65.28
2019-05-28T13:22:11.876Z,63.42
2019-05-28T13:27:19.600Z,63.47
2019-05-28T13:32:26.932Z,62.43
2019-05-28T13:37:34.228Z,65.99
2019-05-28T13:42:41.670Z,64.25
2019-05-28T13:47:49.114Z,68.65
2019-05-28T13:52:56.526Z,67.19
2019-05-28T13:58:03.984Z,69.63
2019-05-28T14:03:11.515Z,64.57
2019-05-28T14:08:18.767Z,61.23
2019-05-28T14:13:26.081Z,65.88
2019-05-28T14:18:33.457Z,62.95
2019-05-28T14:23:40.886Z,64.67
2019-05-28T14:28:48.188Z,66.05
2019-05-28T14:33:55.627Z,66.42
2019-05-28T14:39:04.013Z,67.02
2019-05-28T14:44:11.615Z,66.52
2019-05-28T14:49:18.966Z,66.76
2019-05-28T14:54:26.374Z,65.52
2019-05-28T14:59:33.810Z,65.98
2019-05-28T15:04:41.223Z,68.17
2019-05-28T15:09:48.477Z,66.58
2019-05-28T15:14:55.780Z,66.78
2019-05-28T15:20:03.222Z,67.59
2019-05-28T15:25:10.967Z,65.26
2019-05-28T15:30:18.754Z,67.60
2019-05-28T15:35:26.181Z,64.19
2019-05-28T15:40:33.514Z,66.14
2019-05-28T15:45:40.930Z,63.57
2019-05-28T15:50:48.420Z,66.19
2019-05-28T15:55:55.854Z,68.98
2019-05-28T16:01:03.166Z,66.87
2019-05-28T16:06:10.541Z,66.29
2019-05-28T16:11:17.870Z,68.31
2019-05-28T16:16:25.287Z,68.80
2019-05-28T16:21:32.669Z,69.33
2019-05-28T16:26:40.083Z,70.02
2019-05-28T16:31:47.536Z,70.53
2019-05-28T16:36:54.944Z,68.99
2019-05-28T16:42:02.326Z,70.48
2019-05-28T16:47:16.963Z,70.86
2019-05-28T16:52:18.816Z,70.96
2019-05-28T16:57:26.249Z,70.14
2019-05-28T17:02:33.529Z,70.48
2019-05-28T17:07:40.884Z,71.80
2019-05-28T17:12:48.153Z,72.03
2019-05-28T17:17:55.530Z,72.29
2019-05-28T17:23:02.889Z,72.33
2019-05-28T17:28:10.309Z,73.34
2019-05-28T17:33:17.659Z,73.03
2019-05-28T17:38:25.219Z,72.92
2019-05-28T17:43:32.714Z,73.31
2019-05-28T17:48:40.152Z,74.50
2019-05-28T17:53:47.592Z,74.05
2019-05-28T17:58:55.056Z,74.07
2019-05-28T18:04:02.505Z,73.80
2019-05-28T18:09:11.403Z,73.52
2019-05-28T18:14:18.679Z,73.44
2019-05-28T18:19:26.124Z,73.06
2019-05-28T18:24:33.473Z,74.11
2019-05-28T18:29:40.834Z,73.33
2019-05-28T18:34:48.283Z,73.00
2019-05-28T18:39:55.681Z,73.63
2019-05-28T18:45:03.128Z,73.26
2019-05-28T18:50:12.212Z,73.73
2019-05-28T18:55:22.973Z,74.70
2019-05-28T19:00:28.963Z,74.70
2019-05-28T19:05:36.554Z,74.48
2019-05-28T19:10:43.921Z,74.43
2019-05-28T19:15:51.437Z,75.00
2019-05-28T19:20:58.869Z,74.81
2019-05-28T19:26:06.293Z,75.11
2019-05-28T19:31:13.963Z,75.48
2019-05-28T19:36:21.722Z,76.83
2019-05-28T19:41:29.144Z,75.60
2019-05-28T19:46:36.570Z,75.79
2019-05-28T19:51:43.974Z,76.53
2019-05-28T19:56:51.441Z,75.55
2019-05-28T20:01:58.896Z,75.73
2019-05-28T20:07:06.411Z,76.00
2019-05-28T20:12:13.687Z,75.46
2019-05-28T20:17:21.121Z,76.58
2019-05-28T20:22:28.504Z,76.08
2019-05-28T20:27:35.959Z,75.84
2019-05-28T20:32:43.393Z,76.03
2019-05-28T20:37:50.713Z,75.44
2019-05-28T20:42:58.561Z,74.10
2019-05-28T20:48:06.706Z,74.08
2019-05-28T20:53:14.386Z,73.44
2019-05-28T20:58:21.708Z,72.97
2019-05-28T21:03:29.122Z,73.91
2019-05-28T21:08:36.501Z,72.55
2019-05-28T21:13:43.873Z,72.68
2019-05-28T21:18:51.196Z,73.02
2019-05-28T21:23:58.532Z,73.09
2019-05-28T21:29:06.011Z,72.41
2019-05-28T21:34:13.290Z,72.22
2019-05-28T21:39:20.614Z,72.69
2019-05-28T21:44:28.154Z,73.42
2019-05-28T21:49:35.460Z,73.20
2019-05-28T21:54:42.765Z,73.02
2019-05-28T21:59:50.482Z,73.19
2019-05-28T22:05:02.047Z,73.18
2019-05-28T22:10:08.581Z,73.24
2019-05-28T22:15:16.513Z,72.87
2019-05-28T22:20:23.831Z,73.56
2019-05-28T22:25:31.153Z,73.89
2019-05-28T22:30:38.434Z,73.20
2019-05-28T22:35:45.910Z,73.37
2019-05-28T22:40:53.221Z,73.49
2019-05-28T22:46:01.288Z,73.35
2019-05-28T22:51:09.832Z,73.28
2019-05-28T22:56:17.205Z,72.96
2019-05-28T23:01:24.605Z,73.28
2019-05-28T23:06:31.965Z,73.15
2019-05-28T23:11:43.302Z,73.42
2019-05-28T23:16:50.653Z,73.36
2019-05-28T23:21:58.079Z,73.78
2019-05-28T23:27:05.556Z,73.64
2019-05-28T23:32:12.976Z,73.68
2019-05-28T23:37:20.371Z,74.02
2019-05-28T23:42:27.834Z,74.38
2019-05-28T23:47:35.155Z,74.93
2019-05-28T23:52:42.592Z,74.80
2019-05-28T23:57:49.928Z,74.81
